Time;durP1;ratioP1;P1;durP2;ratioP2;P2;SDS_P1;SDS_P2;PMS_P1;PMS_P2;Temp;Humidity;BMP_temperature;BMP_pressure;BME280_temperature;BME280_humidity;BME280_pressure;Samples;Min_cycle;Max_cycle;Signal;HPM_P1;HPM_P2
2022/09/06 00:01:22;;;;;;;3.17;2.05;;;23.10;92.20;;;;;;5070340;28;20200;-40
2022/09/06 00:03:52;;;;;;;2.88;1.80;;;23.00;92.10;;;;;;5070773;28;20295;-39
2022/09/06 00:06:21;;;;;;;4.90;2.00;;;23.00;92.10;;;;;;5065636;28;20212;-39
2022/09/06 00:08:51;;;;;;;3.58;1.75;;;23.00;92.10;;;;;;5053785;28;20269;-39
2022/09/06 00:11:18;;;;;;;1.73;1.48;;;23.00;92.30;;;;;;5057837;28;20237;-39
2022/09/06 00:13:47;;;;;;;2.25;1.83;;;23.00;92.20;;;;;;5077962;28;20223;-40
2022/09/06 00:16:22;;;;;;;1.92;1.38;;;23.00;92.40;;;;;;5048870;28;20250;-39
2022/09/06 00:18:55;;;;;;;2.53;1.77;;;23.00;92.40;;;;;;5050055;28;20224;-39
2022/09/06 00:21:30;;;;;;;1.88;1.58;;;23.00;92.20;;;;;;5049991;28;20292;-39
2022/09/06 00:23:57;;;;;;;2.65;1.73;;;23.00;92.30;;;;;;5049830;28;20693;-39
2022/09/06 00:26:24;;;;;;;2.10;1.92;;;23.00;92.20;;;;;;5049503;28;20277;-39
2022/09/06 00:28:52;;;;;;;1.80;1.60;;;23.00;92.30;;;;;;5050022;28;20298;-39
2022/09/06 00:31:24;;;;;;;2.88;1.70;;;23.00;92.20;;;;;;5049768;28;20204;-40
2022/09/06 00:33:57;;;;;;;3.47;1.80;;;22.90;92.30;;;;;;5050391;28;20227;-39
2022/09/06 00:36:24;;;;;;;2.63;1.80;;;22.90;92.20;;;;;;5049757;28;20227;-40
2022/09/06 00:38:51;;;;;;;2.08;1.77;;;22.90;92.30;;;;;;5049558;28;20295;-40
2022/09/06 00:41:19;;;;;;;2.50;1.67;;;22.90;92.30;;;;;;5049123;28;20691;-40
2022/09/06 00:43:48;;;;;;;2.05;1.85;;;22.80;92.30;;;;;;5049188;28;20283;-40
2022/09/06 00:46:22;;;;;;;3.65;1.95;;;22.80;92.40;;;;;;5049753;28;20622;-40
2022/09/06 00:48:53;;;;;;;2.38;1.63;;;22.80;92.30;;;;;;5050919;28;20200;-40
2022/09/06 00:51:28;;;;;;;3.28;1.73;;;22.80;92.20;;;;;;5049485;28;20662;-41
2022/09/06 00:53:56;;;;;;;2.63;1.65;;;22.80;92.20;;;;;;5049475;28;20346;-41
2022/09/06 00:56:26;;;;;;;2.70;1.70;;;22.80;92.10;;;;;;5047723;28;20220;-40
2022/09/06 00:58:59;;;;;;;1.60;1.50;;;22.80;92.00;;;;;;5048289;28;20327;-41
2022/09/06 01:01:26;;;;;;;2.40;1.77;;;22.80;92.20;;;;;;5049932;28;20268;-41
2022/09/06 01:03:56;;;;;;;2.95;1.75;;;22.70;92.20;;;;;;5054328;28;20253;-41
2022/09/06 01:06:31;;;;;;;3.88;1.83;;;22.70;92.20;;;;;;5057237;28;20200;-41
2022/09/06 01:09:29;;;;;;;3.47;1.55;;;22.70;92.30;;;;;;5057998;28;20327;-41
2022/09/06 01:12:27;;;;;;;3.60;1.80;;;22.60;92.30;;;;;;5070313;28;20560;-39
2022/09/06 01:15:08;;;;;;;2.33;1.90;;;22.60;92.50;;;;;;5063420;28;20710;-41
2022/09/06 01:18:02;;;;;;;2.88;2.00;;;22.60;92.30;;;;;;5060226;28;20259;-41
2022/09/06 01:20:47;;;;;;;2.00;1.60;;;22.50;92.50;;;;;;5050200;28;20232;-41
2022/09/06 01:23:45;;;;;;;3.28;1.85;;;22.50;92.50;;;;;;5058791;28;20200;-40
2022/09/06 01:26:50;;;;;;;2.97;2.10;;;22.50;92.50;;;;;;5050346;28;20801;-40
2022/09/06 01:29:35;;;;;;;4.07;2.13;;;22.40;92.40;;;;;;5051045;28;20303;-39
2022/09/06 01:32:13;;;;;;;2.10;1.90;;;22.40;92.60;;;;;;5068323;28;20234;-39
2022/09/06 01:34:51;;;;;;;1.75;1.65;;;22.30;92.80;;;;;;5068847;28;20254;-39
2022/09/06 01:37:21;;;;;;;2.40;1.80;;;22.30;92.40;;;;;;5052357;28;20223;-39
2022/09/06 01:39:53;;;;;;;1.77;1.67;;;22.20;92.20;;;;;;5063238;28;20292;-40
2022/09/06 01:42:25;;;;;;;2.45;2.00;;;22.20;92.30;;;;;;5068092;28;20549;-39
2022/09/06 01:45:06;;;;;;;2.72;2.13;;;22.20;92.40;;;;;;5068566;28;20196;-40
2022/09/06 01:47:39;;;;;;;5.28;2.20;;;22.20;92.40;;;;;;5068642;28;20199;-40
2022/09/06 01:50:42;;;;;;;3.05;2.13;;;22.20;92.50;;;;;;5053790;28;20231;-40
2022/09/06 01:53:37;;;;;;;2.38;2.03;;;22.20;92.50;;;;;;5055125;28;20744;-40
2022/09/06 01:56:34;;;;;;;2.00;1.80;;;22.10;92.50;;;;;;5059539;28;20259;-39
2022/09/06 01:59:04;;;;;;;3.03;2.13;;;22.10;92.60;;;;;;5047598;28;20265;-39
2022/09/06 02:02:04;;;;;;;2.67;2.00;;;22.10;92.40;;;;;;5049883;28;20219;-39
2022/09/06 02:04:56;;;;;;;2.63;2.20;;;22.10;92.40;;;;;;5068197;28;20249;-39
2022/09/06 02:07:26;;;;;;;2.92;2.10;;;22.10;92.80;;;;;;5047734;28;20600;-39
2022/09/06 02:10:01;;;;;;;3.08;2.47;;;22.10;92.60;;;;;;5052218;28;20294;-40
2022/09/06 02:12:31;;;;;;;2.28;1.80;;;22.10;92.60;;;;;;5069692;28;20215;-40
2022/09/06 02:15:10;;;;;;;5.93;2.33;;;22.10;92.50;;;;;;5047765;28;20200;-39
2022/09/06 02:17:48;;;;;;;3.35;2.47;;;22.10;92.70;;;;;;5047603;28;21015;-39
2022/09/06 02:20:22;;;;;;;2.95;2.25;;;22.10;92.60;;;;;;5046572;28;20290;-39
2022/09/06 02:22:55;;;;;;;2.75;2.25;;;22.00;92.60;;;;;;5048745;28;20679;-39
2022/09/06 02:25:40;;;;;;;3.90;2.63;;;22.00;92.60;;;;;;5051938;28;20664;-39
2022/09/06 02:28:12;;;;;;;3.53;2.17;;;22.00;92.70;;;;;;5046252;28;20208;-39
2022/09/06 02:30:48;;;;;;;2.55;2.20;;;22.00;92.60;;;;;;5060293;28;20668;-39
2022/09/06 02:33:23;;;;;;;3.15;2.60;;;22.00;92.70;;;;;;5067404;28;20223;-40
2022/09/06 02:35:52;;;;;;;4.18;2.55;;;22.00;92.70;;;;;;5067626;28;20322;-40
2022/09/06 02:38:25;;;;;;;2.53;2.33;;;22.00;92.70;;;;;;5065812;28;20253;-40
2022/09/06 02:40:55;;;;;;;3.13;2.50;;;22.00;92.70;;;;;;5067111;28;20696;-41
2022/09/06 02:43:27;;;;;;;2.88;2.65;;;21.90;92.80;;;;;;5066261;28;20207;-42
2022/09/06 02:45:54;;;;;;;3.55;2.67;;;21.90;93.10;;;;;;5047238;28;20311;-42
2022/09/06 02:48:21;;;;;;;2.97;2.67;;;21.90;92.80;;;;;;5047782;28;20219;-42
2022/09/06 02:50:51;;;;;;;4.15;3.10;;;21.90;93.00;;;;;;5047158;28;20212;-42
2022/09/06 02:53:18;;;;;;;3.58;2.67;;;21.90;92.80;;;;;;5047354;28;20200;-42
2022/09/06 02:55:48;;;;;;;2.95;2.63;;;21.90;92.70;;;;;;5045359;28;20212;-41
2022/09/06 02:58:18;;;;;;;3.78;2.88;;;21.90;92.90;;;;;;5046964;28;20251;-41
2022/09/06 03:00:45;;;;;;;4.88;2.67;;;21.80;92.80;;;;;;5048745;28;20231;-42
2022/09/06 03:03:17;;;;;;;4.10;3.25;;;21.80;92.90;;;;;;5065353;28;20196;-41
2022/09/06 03:05:48;;;;;;;4.72;2.90;;;21.80;92.90;;;;;;5046732;28;20239;-42
2022/09/06 03:08:17;;;;;;;3.75;2.78;;;21.80;93.20;;;;;;5047190;28;20604;-40
2022/09/06 03:10:55;;;;;;;3.63;3.33;;;21.80;92.80;;;;;;5046566;28;20204;-39
2022/09/06 03:13:26;;;;;;;4.95;3.45;;;21.80;93.20;;;;;;5051971;28;20696;-40
2022/09/06 03:15:56;;;;;;;4.72;3.38;;;21.70;93.00;;;;;;5046846;28;20682;-42
2022/09/06 03:18:28;;;;;;;4.05;3.60;;;21.70;93.00;;;;;;5047386;28;20665;-42
2022/09/06 03:20:58;;;;;;;3.85;3.47;;;21.70;93.00;;;;;;5053316;28;20666;-42
2022/09/06 03:23:28;;;;;;;4.85;4.13;;;21.60;93.10;;;;;;5066771;28;20199;-41
2022/09/06 03:25:56;;;;;;;6.32;4.18;;;21.60;93.20;;;;;;5061561;28;20308;-42
2022/09/06 03:28:25;;;;;;;5.68;4.18;;;21.60;93.10;;;;;;5046045;28;20289;-42
2022/09/06 03:30:55;;;;;;;4.47;4.05;;;21.60;93.10;;;;;;5061103;28;20733;-42
2022/09/06 03:33:26;;;;;;;4.90;4.20;;;21.60;93.20;;;;;;5061978;28;20667;-42
2022/09/06 03:35:55;;;;;;;6.63;4.63;;;21.60;93.10;;;;;;5066165;28;20231;-42
2022/09/06 03:38:26;;;;;;;5.07;4.57;;;21.50;93.20;;;;;;5064314;28;20790;-42
2022/09/06 03:40:54;;;;;;;7.53;4.80;;;21.50;93.30;;;;;;5064936;28;20551;-42
2022/09/06 03:43:24;;;;;;;5.47;4.68;;;21.50;93.30;;;;;;5061204;28;20262;-42
2022/09/06 03:45:53;;;;;;;8.85;5.35;;;21.50;93.40;;;;;;5046788;28;20192;-41
2022/09/06 03:48:22;;;;;;;6.53;4.93;;;21.50;93.40;;;;;;5046511;28;20270;-39
2022/09/06 03:50:53;;;;;;;7.18;5.10;;;21.40;93.30;;;;;;5047037;28;20294;-39
2022/09/06 03:53:24;;;;;;;7.00;5.18;;;21.40;93.40;;;;;;5062483;28;20215;-39
2022/09/06 03:55:56;;;;;;;5.88;5.30;;;21.40;93.40;;;;;;5051004;28;20686;-39
2022/09/06 03:58:29;;;;;;;5.40;4.90;;;21.40;93.50;;;;;;5044374;28;20247;-39
2022/09/06 04:01:03;;;;;;;7.10;5.30;;;21.30;93.50;;;;;;5044856;28;20315;-39
2022/09/06 04:03:30;;;;;;;7.47;4.88;;;21.30;93.50;;;;;;5046603;28;20192;-40
2022/09/06 04:06:00;;;;;;;6.63;4.70;;;21.30;93.50;;;;;;5046085;28;20209;-40
2022/09/06 04:08:28;;;;;;;6.38;5.03;;;21.20;93.50;;;;;;5046756;28;20246;-39
2022/09/06 04:10:57;;;;;;;5.43;4.90;;;21.20;93.40;;;;;;5046012;28;20282;-39
2022/09/06 04:13:25;;;;;;;7.90;5.75;;;21.20;93.50;;;;;;5082307;28;20302;-42
2022/09/06 04:15:53;;;;;;;6.25;5.40;;;21.20;93.50;;;;;;5085010;28;20605;-41
2022/09/06 04:18:23;;;;;;;8.13;5.43;;;21.20;93.60;;;;;;5084641;28;20280;-42
2022/09/06 04:20:56;;;;;;;7.40;5.40;;;21.20;93.60;;;;;;5086504;28;20573;-40
2022/09/06 04:23:25;;;;;;;6.47;5.78;;;21.10;93.60;;;;;;5085052;28;20206;-40
2022/09/06 04:25:56;;;;;;;6.32;5.53;;;21.10;93.70;;;;;;5076328;28;20193;-39
2022/09/06 04:28:25;;;;;;;5.88;5.05;;;21.10;93.70;;;;;;5048182;28;20208;-40
2022/09/06 04:30:57;;;;;;;5.20;4.72;;;21.10;93.70;;;;;;5065723;28;20781;-39
2022/09/06 04:33:35;;;;;;;5.97;5.30;;;21.10;93.70;;;;;;5069786;28;20297;-40
2022/09/06 04:36:05;;;;;;;6.03;4.78;;;21.10;93.70;;;;;;5068070;28;20250;-40
2022/09/06 04:38:39;;;;;;;5.38;4.88;;;21.00;93.70;;;;;;5069450;28;20220;-39
2022/09/06 04:41:09;;;;;;;7.03;4.80;;;21.00;93.80;;;;;;5069094;28;20349;-40
2022/09/06 04:43:38;;;;;;;6.32;5.07;;;21.00;93.70;;;;;;5068563;28;20642;-40
2022/09/06 04:46:18;;;;;;;7.97;4.97;;;21.00;93.70;;;;;;5057799;28;20775;-39
2022/09/06 04:48:48;;;;;;;6.32;5.70;;;21.00;93.90;;;;;;5065701;28;20712;-40
2022/09/06 04:51:18;;;;;;;8.07;5.65;;;21.00;93.80;;;;;;5049827;28;20752;-40
2022/09/06 04:53:46;;;;;;;7.15;5.43;;;21.00;93.80;;;;;;5049835;28;20243;-41
2022/09/06 04:56:24;;;;;;;6.13;5.43;;;21.00;93.80;;;;;;5049053;28;20737;-41
2022/09/06 04:58:53;;;;;;;6.20;5.60;;;21.00;94.00;;;;;;5047824;28;20243;-41
2022/09/06 05:01:20;;;;;;;7.45;5.60;;;21.00;93.90;;;;;;5066444;28;20253;-41
2022/09/06 05:03:50;;;;;;;6.07;5.22;;;20.90;93.90;;;;;;5054403;28;20211;-41
2022/09/06 05:06:24;;;;;;;6.32;5.20;;;20.90;94.00;;;;;;5052639;28;20845;-41
2022/09/06 05:08:51;;;;;;;7.25;5.35;;;20.90;94.00;;;;;;5050802;28;20200;-41
2022/09/06 05:11:19;;;;;;;6.30;5.53;;;20.90;93.90;;;;;;5054092;28;20226;-41
2022/09/06 05:13:50;;;;;;;6.70;5.22;;;20.90;94.10;;;;;;5054312;28;20225;-41
2022/09/06 05:16:20;;;;;;;7.10;5.45;;;20.90;94.10;;;;;;5047833;28;20566;-40
2022/09/06 05:18:47;;;;;;;6.85;5.57;;;20.90;94.10;;;;;;5053115;28;20679;-39
2022/09/06 05:21:19;;;;;;;7.07;5.93;;;20.90;94.20;;;;;;5054115;28;20200;-39
2022/09/06 05:23:48;;;;;;;7.22;5.28;;;20.80;94.20;;;;;;5051036;28;20449;-39
2022/09/06 05:26:21;;;;;;;7.00;5.35;;;20.80;94.20;;;;;;5051831;28;20203;-39
2022/09/06 05:28:48;;;;;;;6.18;5.50;;;20.80;94.20;;;;;;5050900;28;20212;-39
2022/09/06 05:31:27;;;;;;;6.90;5.13;;;20.80;94.20;;;;;;5052827;28;20307;-39
2022/09/06 05:33:54;;;;;;;7.40;4.80;;;20.80;94.30;;;;;;5060079;28;20211;-39
2022/09/06 05:36:25;;;;;;;7.13;5.05;;;20.80;94.30;;;;;;5053284;28;20208;-40
2022/09/06 05:38:56;;;;;;;7.40;5.18;;;20.80;94.30;;;;;;5052995;28;20255;-39
2022/09/06 05:41:25;;;;;;;5.78;5.18;;;20.90;94.20;;;;;;5063082;28;20210;-40
2022/09/06 05:43:52;;;;;;;8.77;4.93;;;20.90;94.30;;;;;;5052945;28;20587;-39
2022/09/06 05:46:22;;;;;;;5.60;5.10;;;20.90;94.30;;;;;;5053889;28;20195;-39
2022/09/06 05:48:59;;;;;;;6.82;4.75;;;20.90;94.30;;;;;;5066448;28;20739;-39
2022/09/06 05:51:27;;;;;;;8.82;5.43;;;20.90;94.50;;;;;;5047369;28;20212;-40
2022/09/06 05:53:56;;;;;;;10.43;5.38;;;20.90;94.50;;;;;;5047148;28;20275;-39
2022/09/06 05:56:24;;;;;;;6.75;5.20;;;20.90;94.50;;;;;;5051885;28;20199;-42
2022/09/06 05:58:54;;;;;;;6.55;5.45;;;20.90;94.50;;;;;;5043521;28;20235;-42
2022/09/06 06:01:26;;;;;;;5.57;4.70;;;20.90;94.50;;;;;;5061202;28;20680;-41
2022/09/06 06:03:57;;;;;;;6.13;5.13;;;20.90;94.70;;;;;;5053810;28;20204;-41
2022/09/06 06:06:27;;;;;;;6.38;5.35;;;20.90;94.60;;;;;;5046461;28;20301;-41
2022/09/06 06:08:58;;;;;;;6.05;5.35;;;20.90;94.60;;;;;;5061041;28;20203;-41
2022/09/06 06:11:26;;;;;;;7.45;5.32;;;20.90;94.60;;;;;;5055414;28;20303;-42
2022/09/06 06:13:58;;;;;;;6.13;4.90;;;20.90;94.70;;;;;;5047402;28;20200;-42
2022/09/06 06:16:25;;;;;;;4.88;4.43;;;20.90;94.70;;;;;;5060090;28;20799;-42
2022/09/06 06:18:53;;;;;;;7.00;4.78;;;20.90;94.70;;;;;;5066026;28;20274;-42
2022/09/06 06:21:23;;;;;;;5.03;4.50;;;20.90;94.70;;;;;;5054216;28;20362;-42
2022/09/06 06:23:56;;;;;;;4.55;4.15;;;20.90;94.70;;;;;;5056402;28;20636;-42
2022/09/06 06:26:25;;;;;;;6.25;4.40;;;20.90;94.70;;;;;;5053170;28;20192;-42
2022/09/06 06:28:57;;;;;;;11.57;3.90;;;21.00;94.70;;;;;;5034408;28;20212;-42
2022/09/06 06:31:33;;;;;;;4.97;4.10;;;21.00;94.70;;;;;;5060458;28;20203;-42
2022/09/06 06:34:03;;;;;;;4.50;3.90;;;21.00;94.80;;;;;;5062971;28;20588;-42
2022/09/06 06:36:32;;;;;;;4.32;3.63;;;21.00;94.80;;;;;;5051028;28;20546;-41
2022/09/06 06:39:04;;;;;;;5.22;3.25;;;21.10;94.90;;;;;;5066110;28;20269;-42
2022/09/06 06:41:32;;;;;;;4.47;2.92;;;21.10;94.90;;;;;;5053457;28;20655;-41
2022/09/06 06:44:03;;;;;;;3.15;2.85;;;21.20;94.90;;;;;;5065920;28;20294;-42
2022/09/06 06:46:35;;;;;;;6.68;2.88;;;21.20;94.90;;;;;;5055562;28;20200;-41
2022/09/06 06:49:08;;;;;;;6.60;2.72;;;21.30;94.90;;;;;;5057399;28;20208;-42
2022/09/06 06:51:38;;;;;;;8.82;2.80;;;21.30;94.90;;;;;;5058887;28;20212;-42
2022/09/06 06:54:05;;;;;;;5.75;2.63;;;21.40;94.90;;;;;;5048153;28;20200;-41
2022/09/06 06:56:35;;;;;;;4.80;2.58;;;21.40;95.60;;;;;;5047067;28;20257;-42
2022/09/06 06:59:04;;;;;;;4.00;1.90;;;21.50;95.00;;;;;;5053682;28;20243;-42
2022/09/06 07:01:35;;;;;;;3.42;2.00;;;21.50;95.00;;;;;;5057448;28;20208;-41
2022/09/06 07:04:03;;;;;;;4.63;2.10;;;21.60;95.00;;;;;;5047839;28;20202;-43
2022/09/06 07:06:47;;;;;;;3.30;2.00;;;21.60;95.00;;;;;;5049494;28;20254;-40
2022/09/06 07:09:37;;;;;;;2.47;1.65;;;21.70;95.20;;;;;;5058811;28;20301;-40
2022/09/06 07:12:26;;;;;;;5.85;1.88;;;21.70;95.10;;;;;;5065886;28;20585;-40
2022/09/06 07:14:54;;;;;;;4.03;2.05;;;21.70;95.10;;;;;;5047824;28;20574;-40
2022/09/06 07:17:21;;;;;;;6.35;2.22;;;21.80;95.20;;;;;;5049964;28;20220;-40
2022/09/06 07:19:48;;;;;;;6.22;1.90;;;21.80;95.20;;;;;;5050041;28;20204;-40
2022/09/06 07:22:39;;;;;;;2.83;1.48;;;21.90;95.20;;;;;;5053660;28;20931;-40
2022/09/06 07:25:08;;;;;;;3.45;1.65;;;21.90;95.20;;;;;;5047484;28;20222;-40
2022/09/06 07:27:35;;;;;;;4.18;1.70;;;22.00;95.30;;;;;;5055529;28;20294;-39
2022/09/06 07:30:14;;;;;;;4.18;1.83;;;22.00;95.40;;;;;;5061349;28;20608;-40
2022/09/06 07:32:42;;;;;;;4.60;2.03;;;22.10;95.30;;;;;;5052003;28;20621;-40
2022/09/06 07:35:11;;;;;;;9.73;2.80;;;22.10;95.90;;;;;;5048832;28;20214;-43
2022/09/06 07:37:50;;;;;;;2.60;1.80;;;22.20;95.60;;;;;;5045471;28;20228;-41
2022/09/06 07:40:19;;;;;;;5.80;1.90;;;22.20;95.40;;;;;;5065270;28;20203;-40
2022/09/06 07:42:47;;;;;;;3.35;1.90;;;22.20;95.40;;;;;;5066055;28;20211;-41
2022/09/06 07:45:17;;;;;;;8.45;2.55;;;22.30;95.30;;;;;;5054181;28;20571;-40
2022/09/06 07:47:52;;;;;;;5.07;2.25;;;22.30;95.50;;;;;;5048492;28;20219;-40
2022/09/06 07:50:26;;;;;;;2.97;1.65;;;22.30;95.40;;;;;;5046366;28;20339;-41
2022/09/06 07:53:16;;;;;;;3.88;1.90;;;22.40;95.60;;;;;;5053141;28;20277;-41
2022/09/06 07:55:57;;;;;;;5.30;2.00;;;22.40;95.60;;;;;;5043905;28;20219;-41
2022/09/06 07:58:24;;;;;;;4.30;1.95;;;22.50;95.60;;;;;;5052103;28;20671;-40
2022/09/06 08:00:52;;;;;;;11.27;4.00;;;22.50;95.60;;;;;;5047621;28;20309;-40
2022/09/06 08:03:21;;;;;;;6.80;1.77;;;22.60;95.80;;;;;;5062547;28;20650;-40
2022/09/06 08:05:51;;;;;;;3.20;1.92;;;22.60;95.70;;;;;;5055578;28;20220;-40
2022/09/06 08:08:34;;;;;;;6.13;2.53;;;22.60;95.70;;;;;;5050582;28;20541;-41
2022/09/06 08:11:27;;;;;;;4.47;1.80;;;22.60;95.60;;;;;;5063166;28;20487;-40
2022/09/06 08:13:59;;;;;;;21.02;4.65;;;22.70;95.60;;;;;;5089679;28;20627;-39
2022/09/06 08:16:31;;;;;;;7.05;2.17;;;22.70;95.60;;;;;;5089625;28;20217;-39
2022/09/06 08:19:07;;;;;;;5.50;2.22;;;22.70;95.80;;;;;;5088721;28;20232;-39
2022/09/06 08:21:34;;;;;;;3.45;1.73;;;22.80;95.80;;;;;;5063483;28;20673;-39
2022/09/06 08:24:08;;;;;;;8.02;2.58;;;22.80;95.70;;;;;;5067620;28;20199;-40
2022/09/06 08:26:41;;;;;;;5.13;2.20;;;22.90;95.80;;;;;;5072477;28;20214;-40
2022/09/06 08:29:10;;;;;;;7.75;2.58;;;22.90;95.70;;;;;;5089763;28;20207;-39
2022/09/06 08:31:42;;;;;;;5.07;2.47;;;23.00;95.90;;;;;;5077647;28;20211;-40
2022/09/06 08:34:11;;;;;;;3.53;2.45;;;23.00;96.30;;;;;;5068354;28;20204;-41
2022/09/06 08:36:44;;;;;;;6.43;2.35;;;23.00;95.90;;;;;;5053103;28;20222;-41
2022/09/06 08:39:17;;;;;;;5.93;2.53;;;23.10;96.00;;;;;;5056722;28;20542;-41
2022/09/06 08:42:04;;;;;;;8.75;2.70;;;23.20;96.10;;;;;;5056422;28;20208;-41
2022/09/06 08:44:33;;;;;;;4.32;2.45;;;23.20;96.00;;;;;;5060965;28;20200;-41
2022/09/06 08:47:23;;;;;;;5.43;2.60;;;23.20;95.90;;;;;;5050114;28;20782;-41
2022/09/06 08:49:57;;;;;;;3.28;1.98;;;23.30;96.30;;;;;;5057169;28;20265;-41
2022/09/06 08:52:29;;;;;;;3.53;2.10;;;23.30;96.20;;;;;;5065217;28;20198;-41
2022/09/06 08:55:14;;;;;;;3.97;2.20;;;23.30;96.30;;;;;;5062541;28;20224;-41
2022/09/06 08:57:59;;;;;;;9.57;2.65;;;23.30;96.00;;;;;;5052480;28;20285;-39
2022/09/06 09:00:32;;;;;;;5.10;1.98;;;23.40;96.30;;;;;;5051130;28;20211;-41
2022/09/06 09:03:09;;;;;;;7.15;2.78;;;23.40;96.30;;;;;;5058473;28;20191;-41
2022/09/06 09:05:50;;;;;;;7.03;2.53;;;23.40;96.20;;;;;;5057213;28;20200;-41
2022/09/06 09:08:24;;;;;;;6.47;2.25;;;23.50;96.20;;;;;;5049307;28;20272;-42
2022/09/06 09:11:10;;;;;;;3.97;2.47;;;23.50;96.20;;;;;;5057345;28;20213;-41
2022/09/06 09:13:55;;;;;;;3.97;2.17;;;23.60;96.50;;;;;;5049787;28;20743;-41
2022/09/06 09:16:23;;;;;;;6.20;2.30;;;23.60;96.50;;;;;;5051299;28;20204;-39
2022/09/06 09:18:59;;;;;;;5.93;2.40;;;23.60;96.50;;;;;;5049865;28;20728;-40
2022/09/06 09:21:35;;;;;;;2.97;1.90;;;23.70;96.50;;;;;;5057347;28;20210;-41
2022/09/06 09:24:08;;;;;;;6.13;2.47;;;23.70;96.40;;;;;;5052111;28;20250;-41
2022/09/06 09:26:48;;;;;;;3.55;2.20;;;23.70;96.40;;;;;;5053417;28;20193;-40
2022/09/06 09:29:16;;;;;;;3.58;2.28;;;23.80;96.50;;;;;;5059502;28;20196;-42
2022/09/06 09:31:52;;;;;;;5.43;2.40;;;23.80;96.50;;;;;;5058147;28;20219;-42
2022/09/06 09:34:32;;;;;;;4.85;2.42;;;23.90;96.50;;;;;;5051811;28;20196;-41
2022/09/06 09:37:22;;;;;;;8.27;2.90;;;24.00;96.60;;;;;;5047897;28;20200;-40
2022/09/06 09:40:27;;;;;;;8.38;3.33;;;24.00;96.40;;;;;;5068092;28;20272;-41
2022/09/06 09:43:08;;;;;;;4.18;2.55;;;24.10;96.60;;;;;;5067737;28;20203;-41
2022/09/06 09:45:35;;;;;;;4.63;2.10;;;24.20;96.50;;;;;;5067284;28;20733;-41
2022/09/06 09:48:25;;;;;;;3.78;2.20;;;24.20;96.50;;;;;;5067703;28;20207;-41
2022/09/06 09:50:55;;;;;;;10.05;3.47;;;24.30;96.60;;;;;;5050151;28;20208;-41
2022/09/06 09:53:25;;;;;;;7.93;2.90;;;24.30;96.70;;;;;;5065283;28;20207;-40
2022/09/06 09:55:57;;;;;;;4.80;2.53;;;24.30;96.70;;;;;;5046986;28;20220;-41
2022/09/06 09:58:35;;;;;;;7.25;2.50;;;24.40;96.90;;;;;;5046965;28;20286;-42
2022/09/06 10:01:17;;;;;;;4.50;2.40;;;24.40;96.70;;;;;;5063743;28;20230;-42
2022/09/06 10:03:49;;;;;;;4.90;2.30;;;24.50;96.80;;;;;;5050443;28;20226;-42
2022/09/06 10:06:38;;;;;;;5.60;2.08;;;24.60;96.60;;;;;;5049345;28;20216;-42
2022/09/06 10:09:35;;;;;;;8.02;2.20;;;24.60;96.50;;;;;;5049232;28;20199;-42
2022/09/06 10:12:02;;;;;;;3.38;1.90;;;24.70;96.50;;;;;;5053409;28;20211;-42
2022/09/06 10:14:51;;;;;;;5.95;1.85;;;24.70;96.60;;;;;;5049553;28;20254;-42
2022/09/06 10:17:32;;;;;;;2.50;1.90;;;24.80;96.30;;;;;;5046790;28;20208;-41
2022/09/06 10:20:08;;;;;;;4.63;1.90;;;24.80;96.30;;;;;;5065241;28;20231;-41
2022/09/06 10:23:05;;;;;;;2.80;1.88;;;24.80;96.30;;;;;;5048931;28;20199;-41
2022/09/06 10:25:45;;;;;;;4.35;1.95;;;24.80;96.20;;;;;;5051259;28;20227;-40
2022/09/06 10:28:27;;;;;;;3.67;2.05;;;24.80;96.30;;;;;;5060811;28;20288;-40
2022/09/06 10:31:10;;;;;;;4.78;2.10;;;24.90;96.50;;;;;;5053251;28;20680;-40
2022/09/06 10:34:01;;;;;;;4.63;2.05;;;24.90;96.30;;;;;;5052853;28;20204;-40
2022/09/06 10:36:36;;;;;;;10.60;3.40;;;25.00;96.30;;;;;;5051228;28;20251;-40
2022/09/06 10:39:28;;;;;;;7.05;2.95;;;25.00;96.20;;;;;;5052885;28;20223;-40
2022/09/06 10:42:02;;;;;;;8.27;2.92;;;25.10;96.60;;;;;;5056830;28;20203;-41
2022/09/06 10:44:57;;;;;;;10.10;3.10;;;25.00;96.10;;;;;;5049086;28;20678;-41
2022/09/06 10:47:38;;;;;;;3.35;2.47;;;25.10;95.80;;;;;;5060851;28;20212;-43
2022/09/06 10:50:06;;;;;;;3.80;2.53;;;25.10;95.40;;;;;;5046917;28;20316;-41
2022/09/06 10:52:41;;;;;;;12.85;3.33;;;25.10;95.40;;;;;;5052262;28;20240;-39
2022/09/06 10:55:13;;;;;;;9.50;3.00;;;25.10;95.20;;;;;;5058865;28;20238;-39
2022/09/06 10:57:49;;;;;;;10.27;3.45;;;25.10;95.30;;;;;;5046640;28;20231;-41
2022/09/06 11:00:45;;;;;;;2.72;2.28;;;25.10;95.00;;;;;;5056990;28;20192;-39
2022/09/06 11:03:51;;;;;;;3.97;2.40;;;25.20;95.10;;;;;;5060227;28;20227;-40
2022/09/06 11:06:38;;;;;;;2.55;2.05;;;25.20;94.50;;;;;;5043663;28;20816;-40
2022/09/06 11:09:22;;;;;;;9.07;3.08;;;25.20;94.90;;;;;;5047573;28;20231;-40
2022/09/06 11:12:13;;;;;;;4.70;2.53;;;25.20;95.00;;;;;;5062718;28;20198;-39
2022/09/06 11:14:43;;;;;;;7.43;2.67;;;25.30;95.00;;;;;;5047207;28;20226;-39
2022/09/06 11:17:40;;;;;;;5.60;2.13;;;25.30;95.00;;;;;;5056992;28;20203;-39
2022/09/06 11:20:14;;;;;;;4.20;1.92;;;25.30;95.10;;;;;;5055569;28;20255;-39
2022/09/06 11:22:59;;;;;;;2.38;1.90;;;25.40;94.20;;;;;;5059378;28;20215;-41
2022/09/06 11:25:26;;;;;;;5.88;1.80;;;25.30;94.80;;;;;;5054719;28;20196;-40
2022/09/06 11:27:58;;;;;;;2.90;1.63;;;25.30;94.70;;;;;;5057943;28;20243;-40
2022/09/06 11:30:28;;;;;;;1.50;1.30;;;25.40;94.00;;;;;;5049688;28;20258;-41
2022/09/06 11:33:26;;;;;;;6.70;2.15;;;25.40;94.50;;;;;;5053951;28;20207;-41
2022/09/06 11:36:32;;;;;;;3.40;1.80;;;25.40;94.10;;;;;;5051510;28;20247;-41
2022/09/06 11:39:06;;;;;;;2.75;1.50;;;25.30;94.20;;;;;;5064067;28;20219;-41
2022/09/06 11:41:39;;;;;;;10.45;3.10;;;25.30;94.60;;;;;;5058495;28;20234;-39
2022/09/06 11:44:09;;;;;;;5.10;2.47;;;25.30;94.70;;;;;;5059781;28;20191;-40
2022/09/06 11:46:39;;;;;;;4.20;1.92;;;25.30;94.20;;;;;;5055938;28;20208;-41
2022/09/06 11:49:30;;;;;;;4.63;1.90;;;25.40;94.40;;;;;;5054201;28;20220;-41
2022/09/06 11:52:01;;;;;;;4.20;1.40;;;25.50;94.80;;;;;;5052156;28;20257;-41
2022/09/06 11:54:46;;;;;;;4.85;1.63;;;25.50;95.00;;;;;;5053198;28;20192;-41
2022/09/06 11:57:25;;;;;;;4.60;2.00;;;25.60;94.90;;;;;;5064525;28;20225;-42
2022/09/06 12:00:00;;;;;;;1.60;1.30;;;25.60;94.60;;;;;;5055683;28;20235;-42
2022/09/06 12:02:29;;;;;;;1.85;1.40;;;25.70;94.70;;;;;;5031988;28;20383;-40
2022/09/06 12:05:00;;;;;;;2.70;1.50;;;25.70;94.80;;;;;;5059525;28;20196;-41
2022/09/06 12:07:29;;;;;;;5.82;1.65;;;25.80;94.90;;;;;;5047771;28;20402;-41
2022/09/06 12:10:00;;;;;;;1.85;1.55;;;25.80;95.00;;;;;;5058097;28;20299;-40
2022/09/06 12:12:51;;;;;;;3.90;1.50;;;25.80;94.90;;;;;;5050355;28;20302;-41
2022/09/06 12:15:50;;;;;;;3.13;1.65;;;25.90;95.00;;;;;;5048907;28;20219;-41
2022/09/06 12:18:49;;;;;;;3.75;1.67;;;25.90;95.10;;;;;;5055956;28;20302;-41
2022/09/06 12:21:44;;;;;;;1.80;1.30;;;26.00;94.70;;;;;;5049824;28;20212;-42
2022/09/06 12:24:37;;;;;;;2.03;1.40;;;26.10;94.70;;;;;;5058781;28;20661;-42
2022/09/06 12:27:17;;;;;;;1.45;1.27;;;26.10;95.00;;;;;;5053916;28;20199;-42
2022/09/06 12:30:29;;;;;;;3.33;1.50;;;26.10;95.00;;;;;;5050294;28;20212;-41
2022/09/06 12:32:57;;;;;;;3.13;1.58;;;26.10;95.00;;;;;;5049205;28;20223;-41
2022/09/06 12:35:30;;;;;;;2.55;1.40;;;26.20;95.00;;;;;;5048206;28;20632;-41
2022/09/06 12:38:23;;;;;;;3.28;1.35;;;26.20;95.10;;;;;;5056153;28;20632;-42
2022/09/06 12:40:57;;;;;;;3.88;1.50;;;26.30;94.60;;;;;;5058932;28;20231;-42
2022/09/06 12:43:25;;;;;;;9.13;1.65;;;26.40;94.50;;;;;;5053853;28;20219;-41
2022/09/06 12:45:57;;;;;;;6.38;1.48;;;26.50;94.10;;;;;;5053808;28;20235;-41
2022/09/06 12:48:26;;;;;;;4.70;1.55;;;26.50;94.20;;;;;;5061309;28;20548;-42
2022/09/06 12:51:08;;;;;;;3.63;1.48;;;26.60;94.20;;;;;;5051276;28;21686;-41
2022/09/06 12:53:35;;;;;;;6.15;1.50;;;26.60;94.50;;;;;;5065660;28;20772;-41
2022/09/06 12:56:07;;;;;;;5.18;1.70;;;26.60;94.60;;;;;;5049901;28;20216;-42
2022/09/06 12:58:35;;;;;;;2.63;1.55;;;26.60;94.70;;;;;;5052557;28;20282;-41
2022/09/06 13:01:19;;;;;;;3.67;1.67;;;26.70;94.80;;;;;;5055188;28;20212;-42
2022/09/06 13:04:22;;;;;;;2.42;1.40;;;26.70;94.60;;;;;;5051764;28;20203;-42
2022/09/06 13:06:52;;;;;;;1.25;0.98;;;26.70;94.30;;;;;;5063398;28;20641;-42
2022/09/06 13:09:28;;;;;;;1.55;1.02;;;26.70;94.50;;;;;;5066153;28;20673;-42
2022/09/06 13:12:03;;;;;;;1.10;1.00;;;26.70;94.60;;;;;;5054671;28;20207;-43
2022/09/06 13:14:33;;;;;;;3.05;1.58;;;26.70;94.70;;;;;;5049291;28;20204;-41
2022/09/06 13:17:01;;;;;;;6.80;1.80;;;26.70;94.60;;;;;;5057420;28;20234;-43
2022/09/06 13:19:36;;;;;;;6.85;1.75;;;26.80;94.60;;;;;;5050143;28;20216;-43
2022/09/06 13:22:07;;;;;;;2.85;1.05;;;26.80;94.20;;;;;;5052264;28;20207;-44
2022/09/06 13:24:34;;;;;;;2.35;1.30;;;26.90;94.20;;;;;;5054324;28;20196;-42
2022/09/06 13:27:32;;;;;;;2.63;1.23;;;26.80;94.30;;;;;;5062637;28;20780;-42